LiveATC.Net - Listen to live air traffic control over the Internet!


ICAO: KFUL  IATA: FUL   Airport: Fullerton Municipal Airport
City: Fullerton   State/Province: California
Country: United States   Continent: North America
KFUL METAR Weather: KFUL 181953Z VRB06KT 10SM CLR 31/16 A2989 RMK AO2 SLP121 T03060161
KFUL ADS-B Flight Tracking (ADSBExchange)
KFUL Flight Activity (FlightAware)
KFUL Airport Info   (iFlightPlanner)
KFUL VFR Sectional Chart   (iFlightPlanner) 
KFUL IFR Low Altitude Chart   (iFlightPlanner) 
KFUL IFR High Altitude Chart   (iFlightPlanner) 

KFUL Ground/Tower
Feed Status: UP   Listeners: 0
Listen in your browser - HTML5 player (in browser, HTML5)
Click here to listen with your own player (launches your MP3 player)
Archive Access: KFUL Ground/Tower
FacilityFrequency
Fullerton Ground121.800
Fullerton Tower119.100

NOTICE

Unauthorized use prohibited. See LiveATC.net Terms of Service


Airport/ARTCC Code
Frequency Search
(e.g., 124.400, 128.75)
Site-wide search
 


Browse Feeds
Top 50 Feeds
HF Oceanic Feeds
Coverage Map
Bad Weather Areas

LiveATC FAQ
Offer LiveATC feed
Contact LiveATC.net
Press Inquiries

LiveATC on iPhone
LiveATC on Android

LiveATC Mobile
(Mobile browser)

ATC Audio Archives
Interesting Recordings

LiveATC Forums


Home Page
About LiveATC.net


Terms of Use
Privacy Policy

AIRMETs/SIGMETs

FAA Airport Status
NAS Status
Arrival Demand


Server Software By:
Icecast.org
Liquidsoap